Time;durP1;ratioP1;P1;durP2;ratioP2;P2;SDS_P1;SDS_P2;PMS_P1;PMS_P2;Temp;Humidity;BMP_temperature;BMP_pressure;BME280_temperature;BME280_humidity;BME280_pressure;Samples;Min_cycle;Max_cycle;Signal;HPM_P1;HPM_P2
2022/01/25 00:09:19;;;;;;;34.63;20.65;;;4.00;99.90;;;;;;5061042;28;20155;-77
2022/01/25 00:25:59;;;;;;;36.38;21.27;;;4.00;99.90;;;;;;5076243;28;20067;-77
2022/01/25 00:31:04;;;;;;;33.33;19.85;;;4.00;99.90;;;;;;5065898;28;20064;-78
2022/01/25 00:33:32;;;;;;;31.52;19.40;;;4.00;99.90;;;;;;5065721;28;20100;-78
2022/01/25 00:36:00;;;;;;;39.90;23.08;;;4.00;99.90;;;;;;5068968;28;20041;-78
2022/01/25 00:38:25;;;;;;;39.67;23.83;;;4.00;99.90;;;;;;5045519;28;20043;-78
2022/01/25 00:40:51;;;;;;;43.03;24.80;;;4.00;99.90;;;;;;5035596;28;20044;-78
2022/01/25 00:43:19;;;;;;;39.78;22.73;;;4.00;99.90;;;;;;5066254;28;20119;-78
2022/01/25 00:45:45;;;;;;;38.92;22.75;;;4.00;99.90;;;;;;5053861;28;20036;-78
2022/01/25 00:48:18;;;;;;;37.47;21.25;;;3.90;99.90;;;;;;5069061;28;20037;-79
2022/01/25 00:50:45;;;;;;;39.97;23.50;;;4.00;99.90;;;;;;5070959;28;20503;-79
2022/01/25 00:55:55;;;;;;;39.20;22.98;;;4.00;99.90;;;;;;5094772;28;20053;-78
2022/01/25 00:58:20;;;;;;;39.17;23.33;;;4.00;99.90;;;;;;5074861;28;20052;-78
2022/01/25 01:00:46;;;;;;;36.90;21.90;;;4.00;99.90;;;;;;5074297;28;20056;-78
2022/01/25 01:03:12;;;;;;;32.73;19.87;;;4.00;99.90;;;;;;5059699;28;20050;-79
2022/01/25 01:05:39;;;;;;;29.77;18.58;;;4.00;99.90;;;;;;5076619;28;20316;-78
2022/01/25 01:08:05;;;;;;;31.88;20.13;;;3.90;99.90;;;;;;5076093;28;20063;-77
2022/01/25 01:10:31;;;;;;;29.23;18.10;;;3.90;99.90;;;;;;5057083;28;20051;-77
2022/01/25 01:15:40;;;;;;;30.10;18.15;;;4.00;99.90;;;;;;5058135;28;20040;-78
2022/01/25 01:47:44;;;;;;;34.70;21.65;;;4.00;99.90;;;;;;5075214;28;20127;-76
2022/01/25 01:50:14;;;;;;;38.58;23.13;;;3.90;99.90;;;;;;5073713;28;20483;-77
2022/01/25 01:52:40;;;;;;;39.53;23.95;;;3.90;99.90;;;;;;5086325;28;20048;-77
2022/01/25 01:55:07;;;;;;;39.17;22.30;;;3.90;99.90;;;;;;5072027;28;20433;-77
2022/01/25 01:57:33;;;;;;;39.63;23.23;;;3.90;99.90;;;;;;5058589;28;20476;-77
2022/01/25 01:59:59;;;;;;;42.22;24.50;;;3.90;99.90;;;;;;5055458;28;20072;-78
2022/01/25 02:02:25;;;;;;;38.70;23.73;;;3.90;99.90;;;;;;5069125;28;20072;-77
2022/01/25 02:04:51;;;;;;;39.95;23.73;;;3.90;99.90;;;;;;5036791;28;20037;-77
2022/01/25 02:07:17;;;;;;;41.92;24.08;;;3.90;99.90;;;;;;5052509;28;20051;-77
2022/01/25 02:09:42;;;;;;;41.67;24.05;;;3.90;99.90;;;;;;5091989;28;20148;-77
2022/01/25 02:12:08;;;;;;;38.25;23.20;;;3.90;99.90;;;;;;5070519;28;20033;-77
2022/01/25 02:14:36;;;;;;;36.38;21.50;;;3.90;99.90;;;;;;5068156;28;20055;-76
2022/01/25 02:17:12;;;;;;;36.08;22.10;;;3.90;99.90;;;;;;5056760;28;20055;-77
2022/01/25 02:22:29;;;;;;;33.95;20.10;;;3.90;99.90;;;;;;5073856;28;20503;-76
2022/01/25 02:24:55;;;;;;;33.40;19.83;;;3.90;99.90;;;;;;5065437;28;20085;-76
2022/01/25 02:27:21;;;;;;;31.83;19.25;;;3.90;99.90;;;;;;5067157;28;20045;-76
2022/01/25 02:29:47;;;;;;;31.00;19.08;;;3.90;99.90;;;;;;5055499;28;20107;-76
2022/01/25 02:32:14;;;;;;;37.17;21.35;;;3.90;99.90;;;;;;5072932;28;20111;-78
2022/01/25 02:34:40;;;;;;;33.13;20.80;;;3.90;99.90;;;;;;5073195;28;20514;-78
2022/01/25 02:37:08;;;;;;;34.20;21.08;;;3.90;99.90;;;;;;5072992;28;20028;-78
2022/01/25 02:39:37;;;;;;;31.35;18.63;;;3.90;99.90;;;;;;5072557;28;20040;-78
2022/01/25 02:42:04;;;;;;;29.70;18.33;;;3.90;99.90;;;;;;5068197;28;20040;-78
2022/01/25 02:44:30;;;;;;;33.45;18.52;;;3.90;99.90;;;;;;5085873;28;20055;-77
2022/01/25 02:49:34;;;;;;;48.30;27.90;;;3.90;99.90;;;;;;5071589;28;20059;-78
2022/01/25 02:52:02;;;;;;;47.53;26.90;;;3.90;99.90;;;;;;5079947;28;20041;-77
2022/01/25 02:54:28;;;;;;;47.90;24.75;;;3.90;99.90;;;;;;5078405;28;20051;-77
2022/01/25 02:56:54;;;;;;;38.80;24.35;;;3.90;99.90;;;;;;5055098;28;20521;-77
2022/01/25 02:59:20;;;;;;;41.08;24.92;;;3.90;99.90;;;;;;5065775;28;20051;-78
2022/01/25 03:01:48;;;;;;;35.85;20.90;;;3.90;99.90;;;;;;5067973;28;20051;-78
2022/01/25 03:04:16;;;;;;;37.72;22.33;;;3.90;99.90;;;;;;5069040;28;20123;-77
2022/01/25 03:06:45;;;;;;;36.42;21.63;;;3.90;99.90;;;;;;5068632;28;20039;-78
2022/01/25 03:09:11;;;;;;;33.60;20.52;;;3.90;99.90;;;;;;5048485;28;20032;-78
2022/01/25 03:11:37;;;;;;;;;;;3.90;99.90;;;;;;5068564;28;20044;-77
2022/01/25 03:14:07;;;;;;;46.10;25.77;;;3.90;99.90;;;;;;5072150;28;19916;-78
2022/01/25 03:16:43;;;;;;;43.58;25.38;;;3.90;99.90;;;;;;5071739;28;20045;-78
2022/01/25 03:22:33;;;;;;;47.55;27.83;;;3.90;99.90;;;;;;5098287;28;20051;-77
2022/01/25 03:24:59;;;;;;;43.47;26.95;;;3.90;99.90;;;;;;5072000;28;20037;-77
2022/01/25 03:27:25;;;;;;;40.90;24.42;;;3.90;99.90;;;;;;5053609;28;20044;-77
2022/01/25 03:29:50;;;;;;;37.97;22.90;;;3.90;99.90;;;;;;5068886;28;20041;-76
2022/01/25 03:32:16;;;;;;;42.58;25.10;;;3.90;99.90;;;;;;5065674;28;20368;-77
2022/01/25 03:34:42;;;;;;;45.23;27.33;;;3.90;99.90;;;;;;5065004;28;20487;-76
2022/01/25 03:37:07;;;;;;;42.20;24.95;;;3.90;99.90;;;;;;5070245;28;20331;-75
2022/01/25 03:39:33;;;;;;;37.00;21.73;;;3.90;99.90;;;;;;5069656;28;20063;-75
2022/01/25 03:41:59;;;;;;;33.47;21.13;;;3.90;99.90;;;;;;5049845;28;20062;-76
2022/01/25 03:44:24;;;;;;;33.80;20.13;;;3.90;99.90;;;;;;5050435;28;20036;-76
2022/01/25 03:52:00;;;;;;;41.58;25.75;;;3.90;99.90;;;;;;5068946;28;20501;-76
2022/01/25 03:54:26;;;;;;;38.00;23.70;;;3.90;99.90;;;;;;5045658;28;20128;-76
2022/01/25 03:56:52;;;;;;;41.40;23.35;;;3.90;99.90;;;;;;5037959;28;20483;-76
2022/01/25 03:59:18;;;;;;;35.40;21.58;;;3.90;99.90;;;;;;5062926;28;20069;-76
2022/01/25 04:01:44;;;;;;;43.65;26.27;;;3.90;99.90;;;;;;5033951;28;20133;-76
2022/01/25 04:04:13;;;;;;;41.37;25.07;;;3.90;99.90;;;;;;5049759;28;20044;-76
2022/01/25 04:06:44;;;;;;;43.92;25.52;;;3.90;99.90;;;;;;5046738;28;20279;-76
2022/01/25 04:09:09;;;;;;;40.25;24.05;;;3.90;99.90;;;;;;5068150;28;20364;-76
2022/01/25 04:11:36;;;;;;;37.03;22.83;;;3.90;99.90;;;;;;5070667;28;20052;-76
2022/01/25 04:14:03;;;;;;;36.63;23.05;;;3.90;99.90;;;;;;5068191;28;20037;-76
2022/01/25 04:16:34;;;;;;;40.28;24.23;;;3.90;99.90;;;;;;5051179;28;20110;-76
2022/01/25 04:19:14;;;;;;;37.75;22.73;;;3.90;99.90;;;;;;5064823;28;20044;-76
2022/01/25 04:27:13;;;;;;;51.28;30.42;;;3.90;99.90;;;;;;5069181;28;20475;-76
2022/01/25 04:29:38;;;;;;;43.80;26.20;;;3.80;99.90;;;;;;5069725;28;20036;-75
2022/01/25 04:32:06;;;;;;;46.60;26.85;;;3.90;99.90;;;;;;5052709;28;20129;-75
2022/01/25 04:53:21;;;;;;;44.38;25.80;;;3.90;99.90;;;;;;5069085;28;20469;-75
2022/01/25 04:55:55;;;;;;;41.65;24.25;;;3.90;99.90;;;;;;5059002;28;20052;-75
2022/01/25 04:58:29;;;;;;;44.70;26.63;;;3.90;99.90;;;;;;5043233;28;20051;-75
2022/01/25 05:00:55;;;;;;;49.90;29.42;;;3.90;99.90;;;;;;5046712;28;20492;-75
2022/01/25 05:03:25;;;;;;;48.00;28.70;;;3.80;99.90;;;;;;5061787;28;20038;-75
2022/01/25 05:05:57;;;;;;;48.22;28.67;;;3.80;99.90;;;;;;5068491;28;20523;-75
2022/01/25 05:08:37;;;;;;;50.42;28.58;;;3.90;99.90;;;;;;5047148;28;20385;-75
2022/01/25 05:11:16;;;;;;;47.03;27.02;;;3.90;99.90;;;;;;5067885;28;20770;-75
2022/01/25 05:13:51;;;;;;;42.90;25.17;;;3.90;99.90;;;;;;5060504;28;20068;-75
2022/01/25 05:16:35;;;;;;;44.22;25.75;;;3.80;99.90;;;;;;5065516;28;20484;-75
2022/01/25 05:24:27;;;;;;;45.35;27.25;;;3.80;99.90;;;;;;5065687;28;20185;-75
2022/01/25 05:26:53;;;;;;;53.97;29.60;;;3.80;99.90;;;;;;5067404;28;20129;-75
2022/01/25 05:29:19;;;;;;;51.50;28.40;;;3.90;99.90;;;;;;5034930;28;20075;-75
2022/01/25 05:31:45;;;;;;;47.28;27.50;;;3.90;99.90;;;;;;5050028;28;20067;-75
2022/01/25 05:34:10;;;;;;;51.65;29.80;;;3.90;99.90;;;;;;5049382;28;20033;-75
2022/01/25 05:36:37;;;;;;;50.95;28.75;;;3.90;99.90;;;;;;5055190;28;20044;-75
2022/01/25 05:39:12;;;;;;;43.40;26.15;;;3.90;99.90;;;;;;5071019;28;20114;-75
2022/01/25 05:41:39;;;;;;;50.25;28.88;;;3.90;99.90;;;;;;5070306;28;20040;-75
2022/01/25 05:46:43;;;;;;;43.00;25.17;;;3.90;99.90;;;;;;5072432;28;20032;-75
2022/01/25 05:49:08;;;;;;;40.10;23.80;;;3.90;99.90;;;;;;5072460;28;20120;-75
2022/01/25 05:51:34;;;;;;;42.45;25.65;;;3.90;99.90;;;;;;5071430;28;20127;-74
2022/01/25 05:54:01;;;;;;;42.72;25.58;;;3.90;99.90;;;;;;5049337;28;20064;-75
2022/01/25 05:56:27;;;;;;;40.67;23.85;;;3.90;99.90;;;;;;5083066;28;20494;-75
2022/01/25 05:58:53;;;;;;;47.22;26.98;;;3.90;99.90;;;;;;5052305;28;20041;-74
2022/01/25 06:01:19;;;;;;;43.67;25.67;;;3.90;99.90;;;;;;5050611;28;20048;-75
2022/01/25 06:03:45;;;;;;;43.78;24.80;;;3.90;99.90;;;;;;5068560;28;20036;-75
2022/01/25 06:06:14;;;;;;;;;;;3.90;99.90;;;;;;5071588;28;20040;-75
2022/01/25 06:08:39;;;;;;;47.05;24.88;;;3.90;99.90;;;;;;5068633;28;19927;-74
2022/01/25 06:11:07;;;;;;;50.15;28.48;;;3.90;99.90;;;;;;5071720;28;20104;-74
2022/01/25 06:13:32;;;;;;;41.60;25.00;;;3.90;99.90;;;;;;5048933;28;20063;-75
2022/01/25 06:15:58;;;;;;;41.40;24.43;;;3.90;99.90;;;;;;5053576;28;20347;-75
2022/01/25 06:18:24;;;;;;;44.85;26.45;;;3.90;99.90;;;;;;5070121;28;20553;-75
2022/01/25 06:20:49;;;;;;;43.13;25.48;;;3.90;99.90;;;;;;5054162;28;20044;-75
2022/01/25 06:23:15;;;;;;;53.20;28.83;;;3.90;99.90;;;;;;5071284;28;20037;-76
2022/01/25 06:25:41;;;;;;;44.60;26.55;;;3.90;99.90;;;;;;5054215;28;20032;-76
2022/01/25 06:28:07;;;;;;;49.30;28.00;;;3.90;99.90;;;;;;5060937;28;20056;-75
2022/01/25 06:30:33;;;;;;;48.28;27.17;;;3.90;99.90;;;;;;5066647;28;20133;-75
2022/01/25 06:32:59;;;;;;;37.90;22.40;;;3.90;99.90;;;;;;5066224;28;20064;-75
2022/01/25 06:35:28;;;;;;;43.25;25.83;;;3.90;99.90;;;;;;5052573;28;20123;-75
2022/01/25 06:37:54;;;;;;;38.15;23.02;;;3.90;99.90;;;;;;5072795;28;20403;-74
2022/01/25 06:40:20;;;;;;;35.40;21.58;;;3.90;99.90;;;;;;5071525;28;20042;-74
2022/01/25 06:42:45;;;;;;;38.72;22.80;;;3.90;99.90;;;;;;5047332;28;20082;-74
2022/01/25 06:45:15;;;;;;;42.83;25.25;;;3.90;99.90;;;;;;5015549;28;20043;-74
2022/01/25 06:47:42;;;;;;;41.42;23.50;;;3.90;99.90;;;;;;5048490;28;20405;-74
2022/01/25 06:50:09;;;;;;;48.40;29.48;;;3.90;99.90;;;;;;5092508;28;20161;-75
2022/01/25 06:52:38;;;;;;;44.40;25.95;;;3.90;99.90;;;;;;5071522;28;20048;-75
2022/01/25 06:55:10;;;;;;;45.47;26.13;;;4.00;99.90;;;;;;5063941;28;20060;-74
2022/01/25 06:57:36;;;;;;;44.88;25.42;;;3.90;99.90;;;;;;5098857;28;20052;-75
2022/01/25 07:00:04;;;;;;;;;;;4.00;99.90;;;;;;5069239;28;20040;-75
2022/01/25 07:02:30;;;;;;;42.15;25.48;;;3.90;99.90;;;;;;5065533;28;20439;-74
2022/01/25 07:04:55;;;;;;;47.43;27.80;;;4.00;99.90;;;;;;5054965;28;20187;-75
2022/01/25 07:07:21;;;;;;;42.57;24.00;;;4.00;99.90;;;;;;5070603;28;20314;-75
2022/01/25 07:09:47;;;;;;;40.45;23.73;;;4.00;99.90;;;;;;5068273;28;20083;-76
2022/01/25 07:12:12;;;;;;;48.45;27.85;;;3.90;99.90;;;;;;5061840;28;20508;-75
2022/01/25 07:14:38;;;;;;;41.70;24.88;;;3.90;99.90;;;;;;5030458;28;20127;-75
2022/01/25 07:17:04;;;;;;;43.00;25.20;;;3.90;99.90;;;;;;5033628;28;20041;-75
2022/01/25 07:19:30;;;;;;;46.00;26.65;;;3.90;99.90;;;;;;5023908;28;20177;-75
2022/01/25 07:21:55;;;;;;;46.65;27.10;;;4.00;99.90;;;;;;5062053;28;20104;-75
2022/01/25 07:24:21;;;;;;;55.90;30.27;;;3.90;99.90;;;;;;5053028;28;20831;-75
2022/01/25 07:26:47;;;;;;;47.92;27.40;;;3.90;99.90;;;;;;5031252;28;20066;-76
2022/01/25 07:29:13;;;;;;;47.15;27.55;;;4.00;99.90;;;;;;5066541;28;20055;-76
2022/01/25 07:31:39;;;;;;;43.05;24.75;;;3.90;99.90;;;;;;5046052;28;20040;-76
2022/01/25 07:34:04;;;;;;;39.30;23.70;;;3.90;99.90;;;;;;5064136;28;20182;-75
2022/01/25 07:36:30;;;;;;;44.85;26.30;;;3.90;99.90;;;;;;5034424;28;20393;-77
2022/01/25 07:38:56;;;;;;;37.28;22.08;;;3.90;99.90;;;;;;5045394;28;20036;-75
2022/01/25 07:41:22;;;;;;;40.72;22.80;;;3.90;99.90;;;;;;5069877;28;20041;-76
2022/01/25 07:43:48;;;;;;;40.65;23.05;;;3.90;99.90;;;;;;5064684;28;20047;-75
2022/01/25 07:46:16;;;;;;;38.78;22.40;;;3.90;99.90;;;;;;5044742;28;20037;-83
2022/01/25 07:48:42;;;;;;;39.28;23.55;;;3.90;99.90;;;;;;5087493;28;20041;-80
2022/01/25 07:51:08;;;;;;;48.00;27.73;;;4.00;99.90;;;;;;5068152;28;20041;-80
2022/01/25 07:53:34;;;;;;;48.33;27.83;;;3.90;99.90;;;;;;5039281;28;20047;-80
2022/01/25 07:55:59;;;;;;;42.85;24.98;;;3.90;99.90;;;;;;5054899;28;20124;-80
2022/01/25 07:58:25;;;;;;;43.58;26.00;;;3.90;99.90;;;;;;5036796;28;20040;-80
2022/01/25 08:00:51;;;;;;;43.20;26.35;;;3.90;99.90;;;;;;5069643;28;20040;-80
2022/01/25 08:03:18;;;;;;;42.13;24.60;;;3.90;99.90;;;;;;5072204;28;20447;-80
2022/01/25 08:05:45;;;;;;;43.70;26.85;;;3.90;99.90;;;;;;5050124;28;20036;-80
2022/01/25 08:08:12;;;;;;;43.58;25.50;;;3.90;99.90;;;;;;5071142;28;20057;-80
2022/01/25 08:10:38;;;;;;;50.30;30.23;;;3.90;99.90;;;;;;5068786;28;20529;-80
2022/01/25 08:13:03;;;;;;;44.05;25.65;;;3.90;99.90;;;;;;5069903;28;20464;-80
2022/01/25 08:15:29;;;;;;;36.95;22.48;;;3.90;99.90;;;;;;5068770;28;20043;-79
2022/01/25 08:17:55;;;;;;;33.38;20.33;;;4.00;99.90;;;;;;5066653;28;20040;-80
2022/01/25 08:20:22;;;;;;;36.97;22.25;;;4.00;99.90;;;;;;5099858;28;20117;-79
2022/01/25 08:22:48;;;;;;;40.92;23.77;;;3.90;99.90;;;;;;5066640;28;20064;-79
2022/01/25 08:25:14;;;;;;;42.72;24.75;;;3.90;99.90;;;;;;5045089;28;20468;-80
2022/01/25 08:27:39;;;;;;;46.15;27.75;;;3.90;99.90;;;;;;5061871;28;20049;-79
2022/01/25 08:30:06;;;;;;;43.17;25.75;;;4.00;99.90;;;;;;5075317;28;20040;-80
2022/01/25 08:32:31;;;;;;;;;;;4.00;99.90;;;;;;5069567;28;20044;-80
2022/01/25 08:34:58;;;;;;;49.22;28.63;;;4.00;99.90;;;;;;5075148;28;19971;-80
2022/01/25 08:37:24;;;;;;;;;;;4.00;99.90;;;;;;5064881;28;20080;-80
2022/01/25 08:39:51;;;;;;;49.92;27.48;;;3.90;99.90;;;;;;5066050;28;19970;-80
2022/01/25 08:42:17;;;;;;;46.42;28.25;;;4.00;99.90;;;;;;5092622;28;20059;-80
2022/01/25 08:44:43;;;;;;;45.28;26.77;;;3.90;99.90;;;;;;5037632;28;20024;-80
2022/01/25 08:47:09;;;;;;;41.88;24.25;;;4.00;99.90;;;;;;5032618;28;20032;-80
2022/01/25 08:49:36;;;;;;;36.85;22.40;;;4.00;99.90;;;;;;5045192;28;20047;-80
2022/01/25 08:52:02;;;;;;;42.20;25.75;;;4.00;99.90;;;;;;5061929;28;20052;-81
2022/01/25 08:54:28;;;;;;;45.13;27.10;;;4.00;99.90;;;;;;5065145;28;20765;-80
2022/01/25 08:56:54;;;;;;;50.13;27.95;;;4.00;99.90;;;;;;5038539;28;20131;-80
2022/01/25 08:59:20;;;;;;;46.55;27.75;;;4.00;99.90;;;;;;5038405;28;20063;-80
2022/01/25 09:01:46;;;;;;;50.47;29.63;;;4.00;99.90;;;;;;5066939;28;20350;-81
2022/01/25 09:04:12;;;;;;;42.47;25.35;;;4.00;99.90;;;;;;5060883;28;20047;-80
2022/01/25 09:06:37;;;;;;;46.60;28.05;;;4.00;99.90;;;;;;5089317;28;20049;-80
2022/01/25 09:09:05;;;;;;;52.95;31.50;;;4.00;99.90;;;;;;5069082;28;20040;-79
2022/01/25 09:11:31;;;;;;;50.85;29.00;;;4.00;99.90;;;;;;5054581;28;20139;-80
2022/01/25 09:13:57;;;;;;;48.47;27.63;;;4.00;99.90;;;;;;5073374;28;20189;-79
2022/01/25 09:16:23;;;;;;;47.80;27.63;;;4.10;99.90;;;;;;5066535;28;20033;-81
2022/01/25 09:18:48;;;;;;;41.80;24.90;;;4.00;99.90;;;;;;5052491;28;20078;-82
2022/01/25 09:21:14;;;;;;;48.92;28.33;;;4.00;99.90;;;;;;5038186;28;20048;-82
2022/01/25 09:23:40;;;;;;;51.28;29.65;;;4.10;99.90;;;;;;5052661;28;20072;-82
2022/01/25 09:26:06;;;;;;;58.53;33.75;;;4.00;99.90;;;;;;5063159;28;20173;-82
2022/01/25 09:28:32;;;;;;;47.97;28.30;;;4.10;99.90;;;;;;5048353;28;20041;-81
2022/01/25 09:30:58;;;;;;;46.67;28.10;;;4.10;99.90;;;;;;5083365;28;20042;-81
2022/01/25 09:33:25;;;;;;;55.13;31.45;;;4.00;99.90;;;;;;5053098;28;20194;-81
2022/01/25 09:35:53;;;;;;;53.85;30.67;;;4.00;99.90;;;;;;5057004;28;20432;-81
2022/01/25 09:38:19;;;;;;;54.80;31.40;;;4.00;99.90;;;;;;5072393;28;20361;-81
2022/01/25 09:40:45;;;;;;;50.70;29.48;;;4.10;99.90;;;;;;5065138;28;20048;-81
2022/01/25 09:43:11;;;;;;;51.75;31.42;;;4.00;99.90;;;;;;5070236;28;20114;-81
2022/01/25 09:45:38;;;;;;;52.85;29.70;;;4.10;99.90;;;;;;5061559;28;20381;-81
2022/01/25 09:48:05;;;;;;;;;;;4.10;99.90;;;;;;5047605;28;20076;-81
2022/01/25 09:50:31;;;;;;;51.42;30.17;;;4.10;99.90;;;;;;5066216;28;19944;-82
2022/01/25 09:52:58;;;;;;;48.75;27.77;;;4.10;99.90;;;;;;5065398;28;20451;-81
2022/01/25 09:55:26;;;;;;;57.35;31.27;;;4.10;99.90;;;;;;5071472;28;20056;-70
2022/01/25 09:57:53;;;;;;;55.58;31.75;;;4.10;99.90;;;;;;5069591;28;20563;-81
2022/01/25 10:00:29;;;;;;;51.78;30.90;;;4.10;99.90;;;;;;5068327;28;21838;-81
2022/01/25 10:03:19;;;;;;;47.38;27.52;;;4.10;99.90;;;;;;5069621;28;20040;-81
2022/01/25 10:05:47;;;;;;;48.45;28.15;;;4.10;99.90;;;;;;5065937;28;20396;-81
2022/01/25 10:08:20;;;;;;;53.15;30.15;;;4.10;99.90;;;;;;5077971;28;20078;-82
2022/01/25 10:10:52;;;;;;;51.35;29.15;;;4.10;99.90;;;;;;5062989;28;20068;-81
2022/01/25 10:13:21;;;;;;;53.05;30.83;;;4.10;99.90;;;;;;5062998;28;20053;-81
2022/01/25 10:15:48;;;;;;;58.13;33.22;;;4.10;99.90;;;;;;5066509;28;21471;-81
2022/01/25 10:18:15;;;;;;;52.83;30.70;;;4.10;99.90;;;;;;5036520;28;20634;-82
2022/01/25 10:20:43;;;;;;;;;;;4.10;99.90;;;;;;5045393;28;20105;-80
2022/01/25 10:23:10;;;;;;;;;;;4.10;99.90;;;;;;5053852;28;19924;-82
2022/01/25 10:25:41;;;;;;;60.90;31.17;;;4.10;99.90;;;;;;5082358;28;20007;-82
2022/01/25 10:28:12;;;;;;;53.67;30.17;;;4.20;99.90;;;;;;5067437;28;20048;-82
2022/01/25 10:30:47;;;;;;;56.13;32.00;;;4.20;99.90;;;;;;5065255;28;20040;-82
2022/01/25 10:33:44;;;;;;;54.53;30.52;;;4.20;99.90;;;;;;5064850;28;20074;-82
2022/01/25 10:36:16;;;;;;;57.92;31.48;;;4.10;99.90;;;;;;5066864;28;20040;-81
2022/01/25 10:38:44;;;;;;;52.45;30.83;;;4.20;99.90;;;;;;5076977;28;20036;-81
2022/01/25 10:41:13;;;;;;;52.85;31.25;;;4.20;99.90;;;;;;5082787;28;20045;-82
2022/01/25 10:43:41;;;;;;;47.97;28.98;;;4.20;99.90;;;;;;5066813;28;20049;-81
2022/01/25 10:46:08;;;;;;;54.30;30.02;;;4.20;99.90;;;;;;5091000;28;20063;-82
2022/01/25 10:48:35;;;;;;;53.45;30.98;;;4.20;99.90;;;;;;5062427;28;20480;-82
2022/01/25 10:51:11;;;;;;;56.63;32.38;;;4.20;99.90;;;;;;5042997;28;20036;-82
2022/01/25 10:53:37;;;;;;;54.80;30.48;;;4.20;99.90;;;;;;5077048;28;20056;-82
2022/01/25 10:56:05;;;;;;;54.08;30.50;;;4.20;99.90;;;;;;5064350;28;20504;-82
2022/01/25 10:58:31;;;;;;;64.25;35.15;;;4.20;99.90;;;;;;5045955;28;20080;-84
2022/01/25 11:00:59;;;;;;;59.20;33.80;;;4.20;99.90;;;;;;5062421;28;20133;-84
2022/01/25 11:03:31;;;;;;;56.90;32.85;;;4.20;99.90;;;;;;5063754;28;20049;-84
2022/01/25 11:05:57;;;;;;;52.85;30.65;;;4.30;99.90;;;;;;5050232;28;20372;-83
2022/01/25 11:08:25;;;;;;;65.97;34.75;;;4.20;99.90;;;;;;5049118;28;20072;-83
2022/01/25 11:10:59;;;;;;;47.78;28.17;;;4.20;99.90;;;;;;5064666;28;20041;-82
2022/01/25 11:15:55;;;;;;;50.00;28.50;;;4.30;99.90;;;;;;5066822;28;20045;-83
2022/01/25 11:18:20;;;;;;;54.90;31.25;;;4.30;99.90;;;;;;5047242;28;20050;-83
2022/01/25 11:20:49;;;;;;;56.05;30.55;;;4.30;99.90;;;;;;5065888;28;20123;-83
2022/01/25 11:23:17;;;;;;;57.17;32.28;;;4.30;99.90;;;;;;5064745;28;20506;-83
2022/01/25 11:25:44;;;;;;;54.65;31.60;;;4.30;99.90;;;;;;5037383;28;20776;-84
2022/01/25 11:28:12;;;;;;;48.10;28.40;;;4.30;99.90;;;;;;5049448;28;20123;-84
2022/01/25 11:30:40;;;;;;;52.70;30.08;;;4.30;99.90;;;;;;5063287;28;20045;-83
2022/01/25 11:33:09;;;;;;;50.03;29.48;;;4.30;99.90;;;;;;5066429;28;20111;-84
2022/01/25 11:35:36;;;;;;;58.20;32.45;;;4.20;99.90;;;;;;5066635;28;20044;-83
2022/01/25 11:38:03;;;;;;;57.55;31.13;;;4.30;99.90;;;;;;5050985;28;20403;-83
2022/01/25 11:40:37;;;;;;;54.03;29.75;;;4.30;99.90;;;;;;5064810;28;20044;-83
2022/01/25 11:43:06;;;;;;;50.22;28.55;;;4.20;99.90;;;;;;5063656;28;20068;-83
2022/01/25 11:45:38;;;;;;;56.38;31.38;;;4.30;99.90;;;;;;5070629;28;20059;-84
2022/01/25 11:48:04;;;;;;;51.85;30.17;;;4.20;99.90;;;;;;5068641;28;20045;-82
2022/01/25 11:50:40;;;;;;;55.67;29.95;;;4.30;99.90;;;;;;5057027;28;20047;-83
2022/01/25 11:53:09;;;;;;;52.67;29.52;;;4.30;99.90;;;;;;5062624;28;20059;-84
2022/01/25 11:55:41;;;;;;;51.60;30.33;;;4.30;99.90;;;;;;5063526;28;20492;-83
2022/01/25 11:58:13;;;;;;;52.40;29.88;;;4.30;99.90;;;;;;5094403;28;20045;-83
2022/01/25 12:00:44;;;;;;;56.00;31.98;;;4.30;99.90;;;;;;5067671;28;20041;-83
2022/01/25 12:03:25;;;;;;;51.15;28.70;;;4.30;99.90;;;;;;5044617;28;20040;-83
2022/01/25 12:06:13;;;;;;;56.10;31.88;;;4.30;99.90;;;;;;5066552;28;20041;-83
2022/01/25 12:09:06;;;;;;;;;;;4.30;99.90;;;;;;5052431;28;20044;-83
2022/01/25 12:11:48;;;;;;;63.83;33.03;;;4.30;99.90;;;;;;5095271;28;19916;-83
2022/01/25 12:14:27;;;;;;;50.88;28.85;;;4.30;99.90;;;;;;5049427;28;20132;-83
2022/01/25 12:17:09;;;;;;;56.17;31.92;;;4.30;99.90;;;;;;5045142;28;20036;-83
2022/01/25 12:19:48;;;;;;;57.03;32.05;;;4.30;99.90;;;;;;5066243;28;20041;-83
2022/01/25 12:27:58;;;;;;;53.42;31.52;;;4.30;99.90;;;;;;5089964;28;20071;-82
2022/01/25 12:30:32;;;;;;;62.00;33.30;;;4.30;99.90;;;;;;5058470;28;20483;-83
2022/01/25 12:33:03;;;;;;;56.80;31.02;;;4.20;99.90;;;;;;5075140;28;20099;-82
2022/01/25 12:35:48;;;;;;;54.10;30.20;;;4.30;99.90;;;;;;5066802;28;20032;-84
2022/01/25 12:38:44;;;;;;;57.47;31.85;;;4.30;99.90;;;;;;5066567;28;20484;-84
2022/01/25 12:41:18;;;;;;;57.25;32.53;;;4.30;99.90;;;;;;5047638;28;20491;-83
2022/01/25 12:43:53;;;;;;;57.22;32.05;;;4.30;99.90;;;;;;5068000;28;20056;-84
2022/01/25 12:46:22;;;;;;;55.65;31.83;;;4.30;99.90;;;;;;5065569;28;20044;-83
2022/01/25 12:48:53;;;;;;;56.75;30.33;;;4.20;99.90;;;;;;5069004;28;20537;-84
2022/01/25 12:51:22;;;;;;;57.35;30.17;;;4.30;99.90;;;;;;5055154;28;20072;-83
2022/01/25 12:53:50;;;;;;;57.53;30.98;;;4.30;99.90;;;;;;5038198;28;20075;-83
2022/01/25 12:56:28;;;;;;;58.42;32.28;;;4.20;99.90;;;;;;5063399;28;20040;-82
2022/01/25 12:58:57;;;;;;;51.38;29.48;;;4.30;99.90;;;;;;5090222;28;20075;-79
2022/01/25 13:01:26;;;;;;;63.75;34.92;;;4.30;99.90;;;;;;5073870;28;20040;-77
2022/01/25 13:03:59;;;;;;;60.33;33.50;;;4.30;99.90;;;;;;5062131;28;20037;-76
2022/01/25 13:06:26;;;;;;;56.17;31.85;;;4.30;99.90;;;;;;5053385;28;20036;-76
2022/01/25 13:14:48;;;;;;;63.38;33.40;;;4.30;99.90;;;;;;5061967;28;20060;-77
2022/01/25 13:17:17;;;;;;;63.70;35.20;;;4.30;99.90;;;;;;5069902;28;20041;-76
2022/01/25 13:19:52;;;;;;;57.55;30.77;;;4.30;99.90;;;;;;5067822;28;20047;-77
2022/01/25 13:22:33;;;;;;;52.38;30.58;;;4.30;99.90;;;;;;5069583;28;20483;-76
2022/01/25 13:27:46;;;;;;;54.63;29.88;;;4.30;99.90;;;;;;5070638;28;20048;-77
2022/01/25 13:32:59;;;;;;;64.90;33.15;;;4.30;99.90;;;;;;5070174;28;20151;-76
2022/01/25 13:35:33;;;;;;;64.05;33.97;;;4.30;99.90;;;;;;5052229;28;20127;-76
2022/01/25 13:38:14;;;;;;;58.40;32.15;;;4.30;99.90;;;;;;5053100;28;20106;-77
2022/01/25 13:40:59;;;;;;;61.72;33.05;;;4.30;99.90;;;;;;5052405;28;20151;-77
2022/01/25 13:43:33;;;;;;;57.95;31.05;;;4.30;99.90;;;;;;5087843;28;20075;-75
2022/01/25 13:46:05;;;;;;;52.25;29.23;;;4.30;99.90;;;;;;5069326;28;20130;-75
2022/01/25 13:48:31;;;;;;;58.97;32.35;;;4.30;99.90;;;;;;5074440;28;20099;-75
2022/01/25 13:51:06;;;;;;;60.13;33.03;;;4.30;99.90;;;;;;5065559;28;20229;-74
2022/01/25 13:53:33;;;;;;;53.90;31.08;;;4.30;99.90;;;;;;5074129;28;20521;-74
2022/01/25 13:56:00;;;;;;;;;;;4.30;99.90;;;;;;5066212;28;20064;-74
2022/01/25 13:58:29;;;;;;;59.33;32.42;;;4.30;99.90;;;;;;5079375;28;19916;-74
2022/01/25 14:00:56;;;;;;;61.42;32.92;;;4.30;99.90;;;;;;5063617;28;20510;-74
2022/01/25 14:03:29;;;;;;;68.78;35.53;;;4.30;99.90;;;;;;5069096;28;20736;-74
2022/01/25 14:05:55;;;;;;;60.03;33.53;;;4.20;99.90;;;;;;5054556;28;20559;-74
2022/01/25 14:08:38;;;;;;;58.35;32.63;;;4.30;99.90;;;;;;5054515;28;20029;-74
2022/01/25 14:11:54;;;;;;;55.85;30.05;;;4.20;99.90;;;;;;5052544;28;20067;-74
2022/01/25 14:25:33;;;;;;;51.58;27.85;;;4.20;99.90;;;;;;5065234;28;20044;-74
2022/01/25 14:28:01;;;;;;;46.53;25.38;;;4.20;99.90;;;;;;5071465;28;20385;-74
2022/01/25 14:30:31;;;;;;;53.42;28.83;;;4.10;99.90;;;;;;5038230;28;20706;-75
2022/01/25 14:33:00;;;;;;;50.55;27.33;;;4.20;99.90;;;;;;5070074;28;20041;-74
2022/01/25 14:35:27;;;;;;;51.97;28.60;;;4.20;99.90;;;;;;5072720;28;20045;-74
2022/01/25 14:37:53;;;;;;;54.83;29.83;;;4.10;99.90;;;;;;5069647;28;20484;-75
2022/01/25 14:40:19;;;;;;;55.55;30.80;;;4.20;99.90;;;;;;5066111;28;20036;-74
2022/01/25 14:42:47;;;;;;;62.10;32.13;;;4.20;99.90;;;;;;5071737;28;20046;-74
2022/01/25 14:45:21;;;;;;;58.22;31.73;;;4.10;99.90;;;;;;5065472;28;20095;-74
2022/01/25 14:47:48;;;;;;;59.05;32.03;;;4.10;99.90;;;;;;5065898;28;20063;-74
2022/01/25 14:50:21;;;;;;;58.25;31.50;;;4.10;99.90;;;;;;5062001;28;20048;-74
2022/01/25 14:53:14;;;;;;;60.85;32.35;;;4.10;99.90;;;;;;5071185;28;20055;-74
2022/01/25 14:55:43;;;;;;;52.42;29.20;;;4.10;99.90;;;;;;5071122;28;20127;-74
2022/01/25 15:00:56;;;;;;;51.67;27.90;;;4.10;99.90;;;;;;5062936;28;20396;-73
2022/01/25 15:03:24;;;;;;;52.92;29.15;;;4.10;99.90;;;;;;5060864;28;20042;-74
2022/01/25 15:05:53;;;;;;;57.60;31.30;;;4.10;99.90;;;;;;5043147;28;20106;-74
2022/01/25 15:08:21;;;;;;;54.13;29.50;;;4.10;99.90;;;;;;5041648;28;20037;-81